• Join FlightAware (Why Join?)
  • Login
  • US Flag 
07:00AM EDT


 

Airport Tracker/Info


-or-


 

Live Flight TrackerFlight Track Log ✈ N173DS ✈ 26-Dec-2013 ✈ KTPA - KORL

Flight Track Log - Related Links

Times and Time Zones

All times are in EST time to prevent confusion due to time zone crossing. See the N173DS flight status page for this flight to view local times or setup timezone preferences in your user account.

Time Position Orientation Groundspeed Altitude Reporting Facility
EST Latitude Longitude Course Direction KTS MPH feet Rate Location/Type
10:25AM 27.9833 -82.5333 360° North 159 183 700  Level Tampa TRACON
10:26AM 28.0167 -82.5333 360° North 197 227 1,900 2,640 Climbing Tampa TRACON
10:27AM 28.0500 -82.4833 53° Northeast 221 254 4,700 1,920 Climbing Tampa TRACON
10:28AM 28.0333 -82.4167 106° East 272 313 6,000 660 Climbing Tampa TRACON
10:29AM 28.0167 -82.3333 103° East 283 326 6,100 960 Climbing Tampa TRACON
10:30AM 28.0000 -82.2333 101° East 262 302 8,100 2,040 Climbing Tampa TRACON
10:31AM 28.0000 -82.1500 90° East 296 341 10,500 900 Climbing Tampa TRACON
10:33AM 28.0333 -81.9167 81° East 301 346 11,000 120 Climbing Orlando TRACON
10:34AM 28.0833 -81.8500 50° Northeast 310 357 11,000 -120 Level Orlando TRACON
10:35AM 28.1500 -81.7833 41° Northeast 320 368 10,800 -780 Descending Orlando TRACON
10:36AM 28.2333 -81.7333 28° Northeast 296 341 9,400 -1,680 Descending Orlando TRACON
10:37AM 28.3167 -81.7167 10° North 290 334 7,300 -2,100 Descending Orlando TRACON
10:38AM 28.3833 -81.6833 24° Northeast 268 308 5,200 -2,160 Descending Orlando TRACON
10:39AM 28.4167 -81.6333 53° Northeast 238 274 3,300 -1,200 Descending Orlando TRACON
10:40AM 28.4500 -81.5833 53° Northeast 190 219 3,000 -120 Descending Orlando TRACON
10:41AM 28.4667 -81.5167 74° East 194 223 3,100 -180 Climbing Orlando TRACON
10:42AM 28.4833 -81.4833 60° Northeast 167 192 2,700 -660 Descending Orlando TRACON
10:43AM 28.5167 -81.4333 53° Northeast 157 181 1,800 -840 Descending Orlando TRACON
10:44AM 28.5167 -81.3833 90° East 125 144 1,000 -720 Descending Orlando TRACON
10:45AM 28.5333 -81.3500 60° Northeast 129 148 400 -600 Descending Orlando TRACON
10:47AM 28.5455 -81.3329 66° East  Level Estimated